createdAt,value
2019-02-24T00:01:06.897Z,0.60
2019-02-24T00:03:38.231Z,0.90
2019-02-24T00:06:09.494Z,0.90
2019-02-24T00:08:40.541Z,0.70
2019-02-24T00:11:11.767Z,0.90
2019-02-24T00:13:43.099Z,0.97
2019-02-24T00:16:14.379Z,1.00
2019-02-24T00:18:45.498Z,3.33
2019-02-24T00:21:16.836Z,1.77
2019-02-24T00:23:49.120Z,2.00
2019-02-24T00:26:20.377Z,2.83
2019-02-24T00:28:51.352Z,2.80
2019-02-24T00:31:22.349Z,2.80
2019-02-24T00:33:53.336Z,3.60
2019-02-24T00:36:24.688Z,1.63
2019-02-24T00:38:56.710Z,1.16
2019-02-24T00:41:28.057Z,1.67
2019-02-24T00:43:59.037Z,1.10
2019-02-24T00:46:30.266Z,0.50
2019-02-24T00:49:01.571Z,0.40
2019-02-24T00:51:32.592Z,0.70
2019-02-24T00:54:03.779Z,0.50
2019-02-24T00:56:35.431Z,0.60
2019-02-24T00:59:06.470Z,0.40
2019-02-24T01:01:37.456Z,0.80
2019-02-24T01:04:08.428Z,1.05
2019-02-24T01:06:39.414Z,1.30
2019-02-24T01:09:10.461Z,1.37
2019-02-24T01:11:41.814Z,0.70
2019-02-24T01:14:15.054Z,1.07
2019-02-24T01:16:46.102Z,0.67
2019-02-24T01:19:17.058Z,0.40
2019-02-24T01:21:49.500Z,0.70
2019-02-24T01:24:20.578Z,1.03
2019-02-24T01:26:51.979Z,0.63
2019-02-24T01:29:22.949Z,0.50
2019-02-24T01:31:54.590Z,0.30
2019-02-24T01:34:27.170Z,0.90
2019-02-24T01:36:58.144Z,0.30
2019-02-24T01:39:29.486Z,0.50
2019-02-24T01:42:00.470Z,0.90
2019-02-24T01:44:31.571Z,0.57
2019-02-24T01:47:02.545Z,0.13
2019-02-24T01:49:33.945Z,0.30
2019-02-24T01:52:05.567Z,0.60
2019-02-24T01:54:37.869Z,0.30
2019-02-24T01:57:09.219Z,0.50
2019-02-24T01:59:40.284Z,0.28
2019-02-24T02:02:11.509Z,0.40
2019-02-24T02:04:43.024Z,0.50
2019-02-24T02:07:14.020Z,0.50
2019-02-24T02:09:45.069Z,0.77
2019-02-24T02:12:16.103Z,0.77
2019-02-24T02:14:50.910Z,0.77
2019-02-24T02:17:22.593Z,0.60
2019-02-24T02:19:53.867Z,0.53
2019-02-24T02:22:27.164Z,0.55
2019-02-24T02:24:58.757Z,0.47
2019-02-24T02:27:30.107Z,0.50
2019-02-24T02:30:01.068Z,0.55
2019-02-24T02:32:32.653Z,0.80
2019-02-24T02:35:03.729Z,0.57
2019-02-24T02:37:34.722Z,0.20
2019-02-24T02:40:05.934Z,0.73
2019-02-24T02:42:38.040Z,0.53
2019-02-24T02:45:09.441Z,0.40
2019-02-24T02:47:40.424Z,0.50
2019-02-24T02:50:11.538Z,0.35
2019-02-24T02:52:42.807Z,0.67
2019-02-24T02:55:14.122Z,0.55
2019-02-24T02:57:45.701Z,0.93
2019-02-24T03:00:34.098Z,0.40
2019-02-24T03:03:05.628Z,0.65
2019-02-24T03:05:36.742Z,0.10
2019-02-24T03:08:13.023Z,0.50
2019-02-24T03:10:44.066Z,0.50
2019-02-24T03:13:15.104Z,0.53
2019-02-24T03:15:46.072Z,0.97
2019-02-24T03:18:17.049Z,0.80
2019-02-24T03:20:48.012Z,0.40
2019-02-24T03:23:19.330Z,0.70
2019-02-24T03:25:50.651Z,0.60
2019-02-24T03:28:21.699Z,0.90
2019-02-24T03:30:52.673Z,0.57
2019-02-24T03:33:23.969Z,0.50
2019-02-24T03:35:54.925Z,0.50
2019-02-24T03:38:27.127Z,0.43
2019-02-24T03:40:58.689Z,0.72
2019-02-24T03:43:30.021Z,0.40
2019-02-24T03:46:01.177Z,0.63
2019-02-24T03:48:32.884Z,0.42
2019-02-24T03:51:04.092Z,0.60
2019-02-24T03:53:35.418Z,0.40
2019-02-24T03:56:06.482Z,0.20
2019-02-24T03:58:37.606Z,0.50
2019-02-24T04:01:08.564Z,0.42
2019-02-24T04:03:39.622Z,0.40
2019-02-24T04:06:10.620Z,0.30
2019-02-24T04:08:41.597Z,0.47
2019-02-24T04:11:12.609Z,0.30
2019-02-24T04:13:44.460Z,0.37
2019-02-24T04:16:15.501Z,0.40
2019-02-24T04:18:46.500Z,0.30
2019-02-24T04:21:17.805Z,0.50
2019-02-24T04:23:50.228Z,0.82
2019-02-24T04:26:21.456Z,0.37
2019-02-24T04:28:52.457Z,0.40
2019-02-24T04:31:23.513Z,1.20
2019-02-24T04:33:54.812Z,0.57
2019-02-24T04:36:26.013Z,0.40
2019-02-24T04:38:57.830Z,1.32
2019-02-24T04:41:28.800Z,0.60
2019-02-24T04:43:59.784Z,0.90
2019-02-24T04:46:31.073Z,0.50
2019-02-24T04:49:02.137Z,0.33
2019-02-24T04:51:33.210Z,0.50
2019-02-24T04:54:04.206Z,0.30
2019-02-24T04:56:35.506Z,0.60
2019-02-24T04:59:08.657Z,0.30
2019-02-24T05:01:39.575Z,0.37
2019-02-24T05:04:10.565Z,0.42
2019-02-24T05:06:41.527Z,0.72
2019-02-24T05:09:12.497Z,0.73
2019-02-24T05:11:43.822Z,0.70
2019-02-24T05:14:15.088Z,0.70
2019-02-24T05:16:46.330Z,0.60
2019-02-24T05:19:17.585Z,0.50
2019-02-24T05:21:50.008Z,0.53
2019-02-24T05:24:21.307Z,0.50
2019-02-24T05:26:52.672Z,0.80
2019-02-24T05:29:23.739Z,0.40
2019-02-24T05:31:55.769Z,0.70
2019-02-24T05:34:28.190Z,0.35
2019-02-24T05:36:59.428Z,1.10
2019-02-24T05:39:30.711Z,0.63
2019-02-24T05:42:01.972Z,0.65
2019-02-24T05:44:32.936Z,1.33
2019-02-24T05:47:04.247Z,0.67
2019-02-24T05:49:35.455Z,0.60
2019-02-24T05:52:06.749Z,0.33
2019-02-24T05:54:37.734Z,0.93
2019-02-24T05:57:09.685Z,0.90
2019-02-24T05:59:40.676Z,0.70
2019-02-24T06:02:11.881Z,0.80
2019-02-24T06:04:42.915Z,0.83
2019-02-24T06:07:14.216Z,0.47
2019-02-24T06:09:45.195Z,0.67
2019-02-24T06:12:16.521Z,0.98
2019-02-24T06:14:47.745Z,0.97
2019-02-24T06:17:18.739Z,1.10
2019-02-24T06:19:50.233Z,0.60
2019-02-24T06:22:21.279Z,1.10
2019-02-24T06:24:52.521Z,0.90
2019-02-24T06:27:24.012Z,1.17
2019-02-24T06:30:04.305Z,0.90
2019-02-24T06:32:28.014Z,0.70
2019-02-24T06:34:59.121Z,0.43
2019-02-24T06:37:36.882Z,0.70
2019-02-24T06:40:10.558Z,0.77
2019-02-24T06:42:45.682Z,0.72
2019-02-24T06:45:17.101Z,0.97
2019-02-24T06:47:48.760Z,1.33
2019-02-24T06:50:20.027Z,0.40
2019-02-24T06:52:51.621Z,0.60
2019-02-24T06:55:23.276Z,0.40
2019-02-24T06:57:54.363Z,1.02
2019-02-24T07:00:25.649Z,0.43
2019-02-24T07:02:58.299Z,0.70
2019-02-24T07:05:29.885Z,0.87
2019-02-24T07:08:02.306Z,0.68
2019-02-24T07:10:33.599Z,0.53
2019-02-24T07:13:05.943Z,0.50
2019-02-24T07:15:37.076Z,0.97
2019-02-24T07:18:09.410Z,0.50
2019-02-24T07:20:40.391Z,0.90
2019-02-24T07:23:11.404Z,0.90
2019-02-24T07:25:42.539Z,1.13
2019-02-24T07:28:13.964Z,0.50
2019-02-24T07:30:45.628Z,0.80
2019-02-24T07:33:17.208Z,1.10
2019-02-24T07:35:48.524Z,0.50
2019-02-24T07:38:19.508Z,0.73
2019-02-24T07:40:50.934Z,0.77
2019-02-24T07:43:21.911Z,1.02
2019-02-24T07:45:53.190Z,0.82
2019-02-24T07:48:24.182Z,0.50
2019-02-24T07:50:59.979Z,0.80
2019-02-24T07:53:31.431Z,0.78
2019-02-24T07:56:02.404Z,0.68
2019-02-24T07:58:34.378Z,1.27
2019-02-24T08:01:06.007Z,0.40
2019-02-24T08:03:37.184Z,0.70
2019-02-24T08:06:08.392Z,0.80
2019-02-24T08:08:39.588Z,0.30
2019-02-24T08:11:10.601Z,0.65
2019-02-24T08:13:41.653Z,0.68
2019-02-24T08:16:12.925Z,0.80
2019-02-24T08:18:49.538Z,0.67
2019-02-24T08:21:16.951Z,0.80
2019-02-24T08:23:47.959Z,0.50
2019-02-24T08:26:19.286Z,0.82
2019-02-24T08:28:50.532Z,0.70
2019-02-24T08:31:21.956Z,1.80
2019-02-24T08:33:52.940Z,0.60
2019-02-24T08:36:23.978Z,1.00
2019-02-24T08:38:55.660Z,0.80
2019-02-24T08:41:26.920Z,1.53
2019-02-24T08:43:58.718Z,1.05
2019-02-24T08:46:30.644Z,1.13
2019-02-24T08:49:01.632Z,0.67
2019-02-24T08:51:32.673Z,1.10
2019-02-24T08:54:03.911Z,0.87
2019-02-24T08:56:35.103Z,0.87
2019-02-24T08:59:06.138Z,0.55
2019-02-24T09:01:37.228Z,0.70
2019-02-24T09:04:08.530Z,1.02
2019-02-24T09:06:39.908Z,1.30
2019-02-24T09:09:11.208Z,0.80
2019-02-24T09:11:42.191Z,0.75
2019-02-24T09:14:13.475Z,0.70
2019-02-24T09:16:44.816Z,0.63
2019-02-24T09:19:16.467Z,0.83
2019-02-24T09:21:48.464Z,0.67
2019-02-24T09:24:20.396Z,0.80
2019-02-24T09:26:51.453Z,1.00
2019-02-24T09:29:22.890Z,1.37
2019-02-24T09:31:53.904Z,0.83
2019-02-24T09:34:25.180Z,0.90
2019-02-24T09:36:56.245Z,0.70
2019-02-24T09:39:28.274Z,0.68
2019-02-24T09:41:59.843Z,0.70
2019-02-24T09:44:30.919Z,1.03
2019-02-24T09:47:02.124Z,0.87
2019-02-24T09:49:33.586Z,0.65
2019-02-24T09:52:04.653Z,0.95
2019-02-24T09:54:35.651Z,0.80
2019-02-24T09:57:06.622Z,0.70
2019-02-24T09:59:37.701Z,0.70
2019-02-24T10:02:08.751Z,1.10
2019-02-24T10:04:39.734Z,0.63
2019-02-24T10:07:10.985Z,0.70
2019-02-24T10:09:42.317Z,1.10
2019-02-24T10:12:13.411Z,1.10
2019-02-24T10:14:45.681Z,1.20
2019-02-24T10:17:16.973Z,0.70
2019-02-24T10:19:48.331Z,0.73
2019-02-24T10:22:22.346Z,1.13
2019-02-24T10:24:58.415Z,1.44
2019-02-24T10:27:29.780Z,1.13
2019-02-24T10:30:01.139Z,0.83
2019-02-24T10:32:34.175Z,1.00
2019-02-24T10:35:05.833Z,0.80
2019-02-24T10:37:37.039Z,0.70
2019-02-24T10:40:12.402Z,1.00
2019-02-24T10:42:43.848Z,1.03
2019-02-24T10:45:15.169Z,0.72
2019-02-24T10:47:46.774Z,0.80
2019-02-24T10:50:17.952Z,0.70
2019-02-24T10:52:49.006Z,0.90
2019-02-24T10:55:20.037Z,0.67
2019-02-24T10:57:51.188Z,0.60
2019-02-24T11:00:22.738Z,0.90
2019-02-24T11:02:54.402Z,0.90
2019-02-24T11:05:25.376Z,1.20
2019-02-24T11:07:56.439Z,1.02
2019-02-24T11:10:28.712Z,0.76
2019-02-24T11:13:00.199Z,1.00
2019-02-24T11:15:31.222Z,0.77
2019-02-24T11:18:02.549Z,1.23
2019-02-24T11:20:33.660Z,0.90
2019-02-24T11:23:05.075Z,0.57
2019-02-24T11:25:36.087Z,0.90
2019-02-24T11:28:07.330Z,1.10
2019-02-24T11:30:39.383Z,1.12
2019-02-24T11:33:10.775Z,0.85
2019-02-24T11:35:41.834Z,0.97
2019-02-24T11:38:13.270Z,1.00
2019-02-24T11:40:44.435Z,0.70
2019-02-24T11:43:15.902Z,1.30
2019-02-24T11:45:47.131Z,0.90
2019-02-24T11:48:18.196Z,0.93
2019-02-24T11:50:51.320Z,0.82
2019-02-24T11:53:22.764Z,0.93
2019-02-24T11:55:53.818Z,0.90
2019-02-24T11:58:25.105Z,0.77
2019-02-24T12:00:56.208Z,0.90
2019-02-24T12:03:28.497Z,0.80
2019-02-24T12:05:59.477Z,0.70
2019-02-24T12:08:30.986Z,0.90
2019-02-24T12:11:02.491Z,0.63
2019-02-24T12:13:33.881Z,0.62
2019-02-24T12:16:05.614Z,0.95
2019-02-24T12:18:36.815Z,0.80
2019-02-24T12:21:07.780Z,1.27
2019-02-24T12:23:39.160Z,0.80
2019-02-24T12:26:10.487Z,1.32
2019-02-24T12:28:41.951Z,0.80
2019-02-24T12:31:13.479Z,1.20
2019-02-24T12:33:45.806Z,0.97
2019-02-24T12:36:17.046Z,0.90
2019-02-24T12:38:48.102Z,1.10
2019-02-24T12:41:19.116Z,0.60
2019-02-24T12:43:51.501Z,1.40
2019-02-24T12:46:22.990Z,1.00
2019-02-24T12:48:54.514Z,0.93
2019-02-24T12:51:26.388Z,1.00
2019-02-24T12:53:59.114Z,0.70
2019-02-24T12:56:30.597Z,1.03
2019-02-24T12:59:01.884Z,1.00
2019-02-24T13:01:32.871Z,0.98
2019-02-24T13:04:04.617Z,1.10
2019-02-24T13:06:40.575Z,1.27
2019-02-24T13:09:12.054Z,1.20
2019-02-24T13:11:43.474Z,1.43
2019-02-24T13:14:14.578Z,1.25
2019-02-24T13:16:46.146Z,1.05
2019-02-24T13:19:17.743Z,0.70
2019-02-24T13:21:48.862Z,0.97
2019-02-24T13:24:20.488Z,1.00
2019-02-24T13:26:51.516Z,1.20
2019-02-24T13:29:22.948Z,1.47
2019-02-24T13:31:54.019Z,1.00
2019-02-24T13:34:25.323Z,1.17
2019-02-24T13:36:56.993Z,1.20
2019-02-24T13:39:29.064Z,0.80
2019-02-24T13:42:00.187Z,1.10
2019-02-24T13:44:31.181Z,1.20
2019-02-24T13:47:02.165Z,0.90
2019-02-24T13:49:34.174Z,1.20
2019-02-24T13:52:05.562Z,1.00
2019-02-24T13:54:36.540Z,1.00
2019-02-24T13:57:07.850Z,1.10
2019-02-24T13:59:39.038Z,0.93
2019-02-24T14:02:10.446Z,1.20
2019-02-24T14:04:42.113Z,1.00
2019-02-24T14:07:13.089Z,1.17
2019-02-24T14:09:44.248Z,0.93
2019-02-24T14:12:15.581Z,1.30
2019-02-24T14:14:49.025Z,0.83
2019-02-24T14:17:19.490Z,1.40
2019-02-24T14:19:54.913Z,0.80
2019-02-24T14:22:26.221Z,0.87
2019-02-24T14:24:59.250Z,0.93
2019-02-24T14:27:30.597Z,0.87
2019-02-24T14:30:02.198Z,1.13
2019-02-24T14:32:33.336Z,1.25
2019-02-24T14:35:04.864Z,0.80
2019-02-24T14:37:35.874Z,1.03
2019-02-24T14:40:07.563Z,0.97
2019-02-24T14:42:38.697Z,1.13
2019-02-24T14:45:13.773Z,0.60
2019-02-24T14:47:44.977Z,0.90
2019-02-24T14:50:16.417Z,0.80
2019-02-24T14:52:47.468Z,0.83
2019-02-24T14:55:18.802Z,0.87
2019-02-24T14:57:51.073Z,0.80
2019-02-24T15:00:22.522Z,0.80
2019-02-24T15:03:09.160Z,1.20
2019-02-24T15:05:35.211Z,0.83
2019-02-24T15:08:06.247Z,1.13
2019-02-24T15:10:37.543Z,0.80
2019-02-24T15:13:09.095Z,1.20
2019-02-24T15:15:40.112Z,0.83
2019-02-24T15:18:11.213Z,1.40
2019-02-24T15:20:42.272Z,1.00
2019-02-24T15:23:13.659Z,0.98
2019-02-24T15:25:44.863Z,1.23
2019-02-24T15:28:16.465Z,1.10
2019-02-24T15:30:47.506Z,1.00
2019-02-24T15:33:18.518Z,1.03
2019-02-24T15:35:49.782Z,1.27
2019-02-24T15:38:21.047Z,1.03
2019-02-24T15:40:52.112Z,1.07
2019-02-24T15:43:23.237Z,0.83
2019-02-24T15:45:54.292Z,0.87
2019-02-24T15:48:25.311Z,1.40
2019-02-24T15:50:56.290Z,1.10
2019-02-24T15:53:27.326Z,0.90
2019-02-24T15:55:59.901Z,0.98
2019-02-24T15:58:30.974Z,1.13
2019-02-24T16:01:03.199Z,1.22
2019-02-24T16:03:36.143Z,0.93
2019-02-24T16:06:06.940Z,1.07
2019-02-24T16:08:38.074Z,0.90
2019-02-24T16:11:09.394Z,1.13
2019-02-24T16:13:40.682Z,0.83
2019-02-24T16:16:11.654Z,1.42
2019-02-24T16:18:42.659Z,1.20
2019-02-24T16:21:13.991Z,1.07
2019-02-24T16:23:45.290Z,1.10
2019-02-24T16:26:16.678Z,0.90
2019-02-24T16:28:48.022Z,1.20
2019-02-24T16:31:19.255Z,0.90
2019-02-24T16:33:51.605Z,0.90
2019-02-24T16:36:22.703Z,0.80
2019-02-24T16:38:54.231Z,1.07
2019-02-24T16:41:25.295Z,1.30
2019-02-24T16:43:56.770Z,1.10
2019-02-24T16:46:29.906Z,0.98
2019-02-24T16:49:03.360Z,1.00
2019-02-24T16:51:34.347Z,1.00
2019-02-24T16:54:05.406Z,0.97
2019-02-24T16:57:05.060Z,0.97
2019-02-24T16:59:32.217Z,1.00
2019-02-24T17:02:06.225Z,1.00
2019-02-24T17:04:37.963Z,1.10
2019-02-24T17:07:09.267Z,1.20
2019-02-24T17:09:40.283Z,1.40
2019-02-24T17:12:12.508Z,1.60
2019-02-24T17:14:47.436Z,0.90
2019-02-24T17:17:19.986Z,1.23
2019-02-24T17:19:51.424Z,1.07
2019-02-24T17:22:25.256Z,0.80
2019-02-24T17:24:56.754Z,1.40
2019-02-24T17:27:30.005Z,1.23
2019-02-24T17:30:00.889Z,0.90
2019-02-24T17:32:35.918Z,0.80
2019-02-24T17:35:08.570Z,0.90
2019-02-24T17:37:39.620Z,1.33
2019-02-24T17:40:12.364Z,0.82
2019-02-24T17:42:43.698Z,1.05
2019-02-24T17:45:16.798Z,0.80
2019-02-24T17:47:47.977Z,0.43
2019-02-24T17:50:19.720Z,0.80
2019-02-24T17:52:53.989Z,0.80
2019-02-24T17:55:27.007Z,1.10
2019-02-24T17:57:59.619Z,0.93
2019-02-24T18:00:32.820Z,0.80
2019-02-24T18:03:03.870Z,1.02
2019-02-24T18:05:36.529Z,1.13
2019-02-24T18:08:07.865Z,1.50
2019-02-24T18:10:39.418Z,2.83
2019-02-24T18:13:10.878Z,2.35
2019-02-24T18:15:42.899Z,2.23
2019-02-24T18:18:14.184Z,1.42
2019-02-24T18:20:45.477Z,1.50
2019-02-24T18:23:16.889Z,1.23
2019-02-24T18:25:47.905Z,1.20
2019-02-24T18:28:19.379Z,1.30
2019-02-24T18:30:52.680Z,1.50
2019-02-24T18:33:24.322Z,1.33
2019-02-24T18:35:55.392Z,1.62
2019-02-24T18:38:28.047Z,1.40
2019-02-24T18:40:59.443Z,1.15
2019-02-24T18:43:31.255Z,1.47
2019-02-24T18:46:02.660Z,1.70
2019-02-24T18:48:33.906Z,1.30
2019-02-24T18:51:05.014Z,1.60
2019-02-24T18:53:36.271Z,1.37
2019-02-24T18:56:09.461Z,1.00
2019-02-24T18:58:40.462Z,1.23
2019-02-24T19:01:12.105Z,2.20
2019-02-24T19:03:43.159Z,1.20
2019-02-24T19:06:14.186Z,1.15
2019-02-24T19:08:45.542Z,1.17
2019-02-24T19:11:16.882Z,1.32
2019-02-24T19:13:48.067Z,1.10
2019-02-24T19:16:19.333Z,2.00
2019-02-24T19:18:51.978Z,2.23
2019-02-24T19:21:23.074Z,2.50
2019-02-24T19:23:54.139Z,2.03
2019-02-24T19:26:25.213Z,1.50
2019-02-24T19:28:56.203Z,1.40
2019-02-24T19:31:27.211Z,2.03
2019-02-24T19:34:06.483Z,1.60
2019-02-24T19:36:32.661Z,1.50
2019-02-24T19:39:04.121Z,1.40
2019-02-24T19:41:36.997Z,1.73
2019-02-24T19:44:08.307Z,2.33
2019-02-24T19:46:42.247Z,1.40
2019-02-24T19:49:13.268Z,1.00
2019-02-24T19:51:44.742Z,1.00
2019-02-24T19:54:16.035Z,0.70
2019-02-24T19:56:48.069Z,0.83
2019-02-24T19:59:19.094Z,0.80
2019-02-24T20:01:52.172Z,0.68
2019-02-24T20:04:23.181Z,1.23
2019-02-24T20:06:54.881Z,0.70
2019-02-24T20:09:25.915Z,1.30
2019-02-24T20:11:57.265Z,1.35
2019-02-24T20:14:29.819Z,1.80
2019-02-24T20:17:01.465Z,1.47
2019-02-24T20:19:33.020Z,0.90
2019-02-24T20:22:04.220Z,0.80
2019-02-24T20:24:35.702Z,1.65
2019-02-24T20:27:06.789Z,1.30
2019-02-24T20:29:38.166Z,1.30
2019-02-24T20:32:09.146Z,0.83
2019-02-24T20:34:41.257Z,1.00
2019-02-24T20:37:12.285Z,1.50
2019-02-24T20:39:43.353Z,1.67
2019-02-24T20:42:14.345Z,2.02
2019-02-24T20:44:46.604Z,1.97
2019-02-24T20:47:17.648Z,2.47
2019-02-24T20:49:48.715Z,2.37
2019-02-24T20:52:19.684Z,2.37
2019-02-24T20:54:51.969Z,2.50
2019-02-24T20:57:22.951Z,2.70
2019-02-24T20:59:54.133Z,2.20
2019-02-24T21:02:25.237Z,1.47
2019-02-24T21:04:57.024Z,1.17
2019-02-24T21:07:28.936Z,1.37
2019-02-24T21:10:00.291Z,1.25
2019-02-24T21:12:31.255Z,1.67
2019-02-24T21:15:02.761Z,1.42
2019-02-24T21:17:33.844Z,1.05
2019-02-24T21:20:07.615Z,1.10
2019-02-24T21:22:39.053Z,1.00
2019-02-24T21:25:10.279Z,1.35
2019-02-24T21:27:41.294Z,1.50
2019-02-24T21:30:15.116Z,1.60
2019-02-24T21:32:46.643Z,0.90
2019-02-24T21:35:17.971Z,1.07
2019-02-24T21:37:49.072Z,1.40
2019-02-24T21:40:20.691Z,1.20
2019-02-24T21:42:52.435Z,1.17
2019-02-24T21:45:23.808Z,1.00
2019-02-24T21:47:54.853Z,1.10
2019-02-24T21:50:25.834Z,0.80
2019-02-24T21:52:57.224Z,0.80
2019-02-24T21:55:28.339Z,0.50
2019-02-24T21:57:59.803Z,1.05
2019-02-24T22:00:31.375Z,0.80
2019-02-24T22:03:02.408Z,1.22
2019-02-24T22:05:33.476Z,0.70
2019-02-24T22:08:05.433Z,0.72
2019-02-24T22:10:36.404Z,1.00
2019-02-24T22:13:07.935Z,0.78
2019-02-24T22:15:39.260Z,0.97
2019-02-24T22:18:10.925Z,1.20
2019-02-24T22:20:41.970Z,1.20
2019-02-24T22:23:14.713Z,1.40
2019-02-24T22:25:45.926Z,0.90
2019-02-24T22:28:17.133Z,0.80
2019-02-24T22:30:48.200Z,1.03
2019-02-24T22:33:19.159Z,0.90
2019-02-24T22:35:50.189Z,1.37
2019-02-24T22:38:21.493Z,1.50
2019-02-24T22:40:54.568Z,0.97
2019-02-24T22:43:25.779Z,1.40
2019-02-24T22:45:56.755Z,1.20
2019-02-24T22:48:28.006Z,1.43
2019-02-24T22:51:00.001Z,1.00
2019-02-24T22:53:30.978Z,0.50
2019-02-24T22:56:01.970Z,1.10
2019-02-24T22:58:33.295Z,1.00
2019-02-24T23:01:18.655Z,0.70
2019-02-24T23:03:52.292Z,0.70
2019-02-24T23:06:23.365Z,0.57
2019-02-24T23:08:54.592Z,1.70
2019-02-24T23:11:25.611Z,1.70
2019-02-24T23:13:57.153Z,0.93
2019-02-24T23:16:28.229Z,0.87
2019-02-24T23:19:00.378Z,1.14
2019-02-24T23:21:31.370Z,1.23
2019-02-24T23:24:02.672Z,1.02
2019-02-24T23:26:33.634Z,1.77
2019-02-24T23:29:04.667Z,1.22
2019-02-24T23:31:36.615Z,1.30
2019-02-24T23:34:07.662Z,1.33
2019-02-24T23:36:38.627Z,1.23
2019-02-24T23:39:14.875Z,0.83
2019-02-24T23:41:46.423Z,1.00
2019-02-24T23:44:17.550Z,0.93
2019-02-24T23:46:48.613Z,0.53
2019-02-24T23:49:19.575Z,0.93
2019-02-24T23:51:50.592Z,0.83
2019-02-24T23:54:21.639Z,0.90
2019-02-24T23:56:52.624Z,0.60
2019-02-24T23:59:23.598Z,1.10
